• Join FlightAware (Why Join?)
  • Login
  • US Flag 
05:25AM EDT


 

Airport Tracker/Info


-or-


 

Live Flight TrackerFlight Track Log ✈ FLG3862 ✈ 22-Apr-2013 ✈ KDTW - KBTV

Flight Track Log - Related Links

Times and Time Zones

All times are in EDT time to prevent confusion due to time zone crossing. See the FLG3862 flight status page for this flight to view local times or setup timezone preferences in your user account.

Time Position Orientation Groundspeed Altitude Reporting Facility
EDT Latitude Longitude Course Direction KTS MPH feet Rate Location/Type
10:42AM 42.2017 -83.3583 90° East 167 192 1,200  Level Cleveland Center
10:42AM 42.1814 -83.3550 173° South 190 219 2,100 2,160 Climbing FAA TRACON SMA TRACON (SMA)
10:42AM 42.1658 -83.3542 178° South 193 222 3,000 2,760 Climbing FAA TRACON SMA TRACON (SMA)
10:43AM 42.1467 -83.3528 177° South 198 228 3,900 1,920 Climbing FAA TRACON SMA TRACON (SMA)
10:43AM 42.1225 -83.3531 180° South 243 280 4,300 1,320 Climbing FAA TRACON SMA TRACON (SMA)
10:43AM 42.1019 -83.3528 179° South 254 292 4,800 1,920 Climbing FAA TRACON SMA TRACON (SMA)
10:44AM 42.0794 -83.3522 179° South 269 310 5,600 3,000 Climbing FAA TRACON SMA TRACON (SMA)
10:44AM 42.0553 -83.3344 151° Southeast 259 298 6,800 3,000 Climbing FAA TRACON SMA TRACON (SMA)
10:44AM 42.0478 -83.3072 110° East 271 312 7,600 2,220 Climbing FAA TRACON SMA TRACON (SMA)
10:45AM 42.3116 -82.7753 75° East  Level FlightAware Approximate
10:45AM 42.0489 -83.2767 87° East 272 313 8,300  Level FAA TRACON SMA TRACON (SMA)
10:45AM 42.0525 -83.2369 83° East 279 321 9,200 2,400 Climbing FAA TRACON SMA TRACON (SMA)
10:45AM 42.0633 -83.2075 64° Northeast 294 338 9,900 1,200 Climbing FAA TRACON SMA TRACON (SMA)
10:46AM 42.3288 -82.6285 82° East  Level FlightAware Approximate
10:46AM 42.0758 -83.1769 61° Northeast 318 366 10,000  Level FAA TRACON SMA TRACON (SMA)
10:46AM 42.0922 -83.1372 61° Northeast 317 365 10,000 300 Level FAA TRACON SMA TRACON (SMA)
10:46AM 42.1053 -83.1047 62° Northeast 320 368 10,200 1,500 Climbing FAA TRACON SMA TRACON (SMA)
10:47AM 42.3500 -82.4838 90° East  Level FlightAware Approximate
10:47AM 42.1219 -83.0647 61° Northeast 319 367 11,000  Level FAA TRACON SMA TRACON (SMA)
10:47AM 42.1350 -83.0325 61° Northeast 320 368 11,600 2,100 Climbing FAA TRACON SMA TRACON (SMA)
10:47AM 42.1486 -82.9997 61° Northeast 323 372 12,400 2,100 Climbing FAA TRACON SMA TRACON (SMA)
10:48AM 42.1658 -82.9578 61° Northeast 331 381 13,000 1,740 Climbing FAA TRACON SMA TRACON (SMA)
10:48AM 42.1797 -82.9233 61° Northeast 337 388 13,600 1,860 Climbing FAA TRACON SMA TRACON (SMA)
10:49AM 42.2083 -82.8528 61° Northeast 347 399 14,900 2,100 Climbing FAA TRACON SMA TRACON (SMA)
10:49AM 42.2264 -82.8083 61° Northeast 350 403 15,700 1,920 Climbing FAA TRACON SMA TRACON (SMA)
10:49AM 42.2406 -82.7725 62° Northeast 350 403 16,200 1,800 Climbing FAA TRACON SMA TRACON (SMA)
10:50AM 42.2592 -82.7272 61° Northeast 355 409 16,900 1,800 Climbing FAA TRACON SMA TRACON (SMA)
10:50AM 42.2736 -82.6906 62° Northeast 359 413 17,400 1,200 Climbing FAA TRACON SMA TRACON (SMA)
10:50AM 42.2886 -82.6536 61° Northeast 362 417 17,700 660 Climbing FAA TRACON SMA TRACON (SMA)
10:51AM 42.3075 -82.6069 61° Northeast 366 421 17,900 960 Climbing FAA TRACON SMA TRACON (SMA)
10:51AM 42.3264 -82.5589 62° Northeast 374 430 18,400 1,260 Climbing FAA TRACON SMA TRACON (SMA)
10:51AM 42.3381 -82.5297 62° Northeast 378 435 18,700 1,260 Climbing FAA TRACON SMA TRACON (SMA)
10:52AM 42.3581 -82.4808 61° Northeast 384 442 19,200 1,320 Climbing FAA TRACON SMA TRACON (SMA)
10:52AM 42.3656 -82.4372 77° East 381 438 19,600 1,020 Climbing FAA TRACON SMA TRACON (SMA)
10:52AM 42.3658 -82.3931 89° East 382 440 19,900 1,020 Climbing FAA TRACON SMA TRACON (SMA)
10:53AM 42.3642 -82.3369 92° East 390 449 20,300 1,140 Climbing FAA TRACON SMA TRACON (SMA)
10:53AM 42.3631 -82.2914 92° East 392 451 20,700 1,200 Climbing FAA TRACON SMA TRACON (SMA)
10:53AM 42.3608 -82.2461 94° East 393 452 21,100 1,020 Climbing FAA TRACON SMA TRACON (SMA)
10:54AM 42.3592 -82.1933 92° East 394 453 21,400 420 Climbing FAA TRACON SMA TRACON (SMA)
10:54AM 42.3592 -82.1933 216° Southwest 394 453 21,400 1,080 Level FAA TRACON SMA TRACON (SMA)
10:55AM 42.3492 -82.0131 94° East 401 461 22,700 1,080 Climbing Cleveland Center
10:56AM 42.3425 -81.8725 94° East 409 471 23,500 840 Climbing Cleveland Center
10:57AM 42.3378 -81.7181 92° East 409 471 24,400 840 Climbing Cleveland Center
10:58AM 42.3289 -81.5606 94° East 409 471 25,200 780 Climbing Cleveland Center
10:59AM 42.3217 -81.4058 94° East 409 471 26,000 720 Climbing Cleveland Center
11:00AM 42.3144 -81.2458 93° East 415 478 26,700 600 Climbing Cleveland Center
11:01AM 42.3028 -81.0717 95° East 425 489 27,300 540 Climbing Cleveland Center
11:02AM 42.2950 -80.9117 94° East 425 489 27,800 480 Climbing Cleveland Center
11:03AM 42.2892 -80.7458 93° East 430 495 28,300 480 Climbing Cleveland Center
11:04AM 42.2789 -80.5831 95° East 430 495 28,800 480 Climbing Cleveland Center
11:05AM 42.2725 -80.4233 93° East 430 495 29,300 480 Climbing Cleveland Center
11:06AM 42.2908 -80.2603 81° East 430 495 29,800 480 Climbing Cleveland Center
11:07AM 42.3281 -80.1058 72° East 422 486 30,300 480 Climbing Cleveland Center
11:08AM 42.3586 -79.9706 73° East 430 495 30,800 300 Climbing Cleveland Center
11:09AM 42.3953 -79.8156 72° East 430 495 31,000 60 Climbing Cleveland Center
11:10AM 42.4314 -79.6550 73° East 425 489 31,000  Level Cleveland Center
11:11AM 42.4678 -79.4994 72° East 425 489 31,000  Level Cleveland Center
11:12AM 42.5036 -79.3356 73° East 435 501 31,000  Level Cleveland Center
11:13AM 42.5433 -79.1742 71° East 441 507 31,000  Level Cleveland Center
11:14AM 42.5767 -79.0156 74° East 441 507 31,000  Level Cleveland Center
11:15AM 42.6119 -78.8539 73° East 441 507 31,000  Level Cleveland Center
11:16AM 42.6489 -78.6892 73° East 441 507 31,000  Level Cleveland Center
11:17AM 42.6836 -78.5269 74° East 441 507 31,000  Level Cleveland Center
11:18AM 42.7203 -78.3619 73° East 441 507 31,000  Level Cleveland Center
11:19AM 42.7544 -78.2022 74° East 441 507 31,000  Level Cleveland Center
11:20AM 42.7886 -78.0397 74° East 441 507 31,000  Level Cleveland Center
11:21AM 42.8244 -77.8742 74° East 446 513 31,000  Level Cleveland Center
11:22AM 42.8581 -77.7111 74° East 446 513 31,000  Level Cleveland Center
11:23AM 42.8933 -77.5450 74° East 446 513 31,000  Level Cleveland Center
11:24AM 42.9244 -77.3819 75° East 446 513 31,000  Level Cleveland Center
11:26AM 42.9928 -77.0481 74° East 431 496 31,000  Level Boston Center
11:27AM 43.0267 -76.8800 75° East 443 510 31,000  Level Boston Center
11:28AM 43.0622 -76.7119 74° East 449 517 31,000  Level Boston Center
11:29AM 43.0956 -76.5464 75° East 449 517 31,000  Level Boston Center
11:30AM 43.1286 -76.3778 75° East 449 517 31,000  Level Boston Center
11:31AM 43.1656 -76.2122 73° East 449 517 31,000  Level Boston Center
11:32AM 43.2428 -76.0772 52° Northeast 444 511 31,000 -480 Level Boston Center
11:33AM 43.3222 -75.9394 52° Northeast 449 517 30,100 -960 Descending Boston Center
11:34AM 43.4144 -75.7817 51° Northeast 461 531 29,100 -1,080 Descending Boston Center
11:35AM 43.4978 -75.6375 51° Northeast 481 554 28,000 -1,320 Descending Boston Center
11:36AM 43.5764 -75.5039 51° Northeast 476 548 26,500 -1,500 Descending Boston Center
11:37AM 43.6506 -75.3756 51° Northeast 449 517 25,000 -1,500 Descending Boston Center
11:38AM 43.7228 -75.2469 52° Northeast 434 499 23,500 -1,560 Descending Boston Center
11:39AM 43.7967 -75.1211 51° Northeast 429 494 21,900 -1,560 Descending Boston Center
11:40AM 43.8683 -74.9917 52° Northeast 424 488 20,400 -1,500 Descending Boston Center
11:41AM 43.9356 -74.8733 52° Northeast 417 480 18,900 -1,200 Descending Boston Center
11:42AM 44.0025 -74.7519 52° Northeast 405 466 18,000 -480 Descending Boston Center
11:43AM 44.0694 -74.6361 51° Northeast 394 453 18,000  Level Boston Center
11:44AM 44.1342 -74.5200 52° Northeast 382 440 18,000 -720 Level Boston Center
11:45AM 44.1986 -74.4064 52° Northeast 382 440 16,600 -1,500 Descending Boston Center
11:46AM 44.2631 -74.2925 52° Northeast 377 434 15,100 -1,500 Descending Boston Center
11:47AM 44.3047 -74.1633 66° East 372 428 13,600 -1,500 Descending Boston Center
11:48AM 44.3294 -74.0306 75° East 357 411 12,100 -1,260 Descending Boston Center
11:49AM 44.3519 -73.9003 76° East 346 398 11,100 -780 Descending Boston Center
11:50AM 44.3764 -73.7819 74° East 336 387 10,600 -1,020 Descending Boston Center
11:51AM 44.4108 -73.6781 65° Northeast 303 349 9,100 -1,500 Descending Boston Center
11:52AM 44.4431 -73.5886 63° Northeast 271 312 7,600 -1,500 Descending Boston Center
11:53AM 44.4711 -73.5019 66° East 246 283 6,100 -1,500 Descending Boston Center
11:54AM 44.5008 -73.4181 64° Northeast 241 277 4,600 -1,200 Descending Boston Center
11:55AM 44.5264 -73.3486 63° Northeast 214 246 3,800 -960 Descending Boston Center
11:56AM 44.5417 -73.2847 71° East 172 198 2,500 -1,020 Descending Boston Center
11:57AM 44.5231 -73.2350 118° Southeast 140 161 1,600 -840 Descending Boston Center
11:58AM 44.4983 -73.1939 130° Southeast 134 154 900 8,160 Descending Boston Center
11:59AM 44.4717 -73.1558 134° Southeast 139 160 18,000 8,520 Climbing Boston Center
12:00PM 44.4550 -73.1353 139° Southeast 102 117 18,000  Level Boston Center